Columbia — WYR2092 — position and weather

sailwx.info

Track history (hours):
 
Tides and Currents Weather Stations Pressure Air Temp Water Temp Dewpoint Dewpoint Depression Visibility Wind Speed Wind Dir Waves Ship Positions

Columbia

Owner: ALASKA, STATE OF, ANCHORAGE, AK. More information available from US FCC via Universal Licensing System and Coast Guard Vessel Documentation Center.

Last reported at 2017-Dec-10 11:17 UTC. Time now 2017-Dec-12 04:25 UTC.
Position N 54°37' W 130°44'.

Type: Passenger vessel. MMSI: 367144000.

Date/timePositionNaut miles runAvg speedWind from/ knotsBaromVisibWave heightAir tempDewpointWater temp
2017-Dec-10 11:17N 54°37' W 130°44'414.0
2017-Dec-10 11:00N 54°33' W 130°43'714.7
2017-Dec-10 10:30N 54°26' W 130°39'816.1
2017-Dec-10 10:00N 54°18' W 130°34'816.1
2017-Dec-10 09:31N 54°11' W 130°28'816.0
2017-Dec-10 09:01N 54°05' W 130°19'816.6
2017-Dec-10 08:30N 53°58' W 130°12'816.7
2017-Dec-10 08:00N 53°51' W 130°03'10015.1
2017-Dec-10 01:25N 52°30' W 128°27'716.3
2017-Dec-10 01:00N 52°24' W 128°31'816.2
2017-Dec-10 00:31N 52°16' W 128°33'714.5
2017-Dec-10 00:00N 52°15' W 128°21'816.3
2017-Dec-09 23:30N 52°13' W 128°08'4 8.0
2017-Dec-09 22:59N 52°09' W 128°08'912.1
2017-Dec-09 22:16N 52°04' W 127°56'515.6
2017-Dec-09 21:59N 51°59' W 127°56'715.9
2017-Dec-09 21:31N 51°52' W 127°56'816.4
2017-Dec-09 21:01N 51°44' W 127°55'816.0
2017-Dec-09 20:31N 51°36' W 127°53'815.7
2017-Dec-09 20:01N 51°28' W 127°51'815.9
2017-Dec-09 19:30N 51°20' W 127°52'713.9
2017-Dec-09 19:00N 51°13' W 127°51'612.8
2017-Dec-09 18:30N 51°08' W 127°46'713.0
2017-Dec-09 18:00N 51°03' W 127°39'612.4
2017-Dec-09 17:30N 50°58' W 127°32'714.7
2017-Dec-09 17:00N 50°54' W 127°23'918.2
2017-Dec-09 16:30N 50°49' W 127°10'917.9
2017-Dec-09 16:00N 50°44' W 126°59'5115.9
2017-Dec-09 12:49N 50°23' W 125°47'1015.4
2017-Dec-09 12:12N 50°21' W 125°32'316.0
2017-Dec-09 12:00N 50°20' W 125°27'816.3
2017-Dec-09 11:30N 50°13' W 125°22'816.2
2017-Dec-09 11:00N 50°06' W 125°17'714.6
2017-Dec-09 10:31N 49°59' W 125°12'917.8
2017-Dec-09 10:01N 49°53' W 125°02'917.3
2017-Dec-09 09:31N 49°47' W 124°52'917.5
2017-Dec-09 09:00N 49°41' W 124°43'816.8
2017-Dec-09 08:30N 49°35' W 124°34'1017.0
2017-Dec-09 07:55N 49°28' W 124°23'716.8
2017-Dec-09 07:30N 49°25' W 124°13'917.1
2017-Dec-09 06:57N 49°23' W 123°58'817.0
2017-Dec-09 06:29N 49°21' W 123°47'816.9
2017-Dec-09 05:59N 49°16' W 123°36'816.7
2017-Dec-09 05:31N 49°10' W 123°28'917.0
2017-Dec-09 05:00N 49°03' W 123°20'816.4
2017-Dec-09 04:29N 48°58' W 123°10'817.4
2017-Dec-09 04:00N 48°52' W 123°00'816.1
2017-Dec-09 03:30N 48°47' W 122°51'816.8
2017-Dec-09 03:01N 48°41' W 122°42'611.5
2017-Dec-09 02:30N 48°41' W 122°33'3 6.5
2017-Dec-09 02:00N 48°43' W 122°31'0 0.0
2017-Dec-09 01:30N 48°43' W 122°31'0 0.0
2017-Dec-09 01:00N 48°43' W 122°31'0 0.0
2017-Dec-09 00:30N 48°43' W 122°31'0 0.0
2017-Dec-09 00:00N 48°43' W 122°31'0 0.0
2017-Dec-08 23:30N 48°43' W 122°31'0 0.0
2017-Dec-08 23:00N 48°43' W 122°31'0 0.0
2017-Dec-08 22:27N 48°43' W 122°31'0 0.0
2017-Dec-08 21:54N 48°43' W 122°31'0 0.0
2017-Dec-08 21:30N 48°43' W 122°31'0 0.0
2017-Dec-08 20:12N 48°43' W 122°31'0 0.0
2017-Dec-08 19:30N 48°43' W 122°31'0 0.0
2017-Dec-08 18:59N 48°43' W 122°31'0 0.0
2017-Dec-08 18:30N 48°43' W 122°31'0 0.0
2017-Dec-08 18:00N 48°43' W 122°31'0 0.0
2017-Dec-08 17:30N 48°43' W 122°31'0 0.0
2017-Dec-08 16:44N 48°43' W 122°31'0 0.0
2017-Dec-08 16:30N 48°43' W 122°31'0 0.0
2017-Dec-08 16:00N 48°43' W 122°31'1 1.4
2017-Dec-08 15:30N 48°43' W 122°32'714.1
2017-Dec-08 15:01N 48°37' W 122°37'714.7
2017-Dec-08 14:30N 48°43' W 122°45'714.2
2017-Dec-08 14:00N 48°47' W 122°53'815.4
2017-Dec-08 13:30N 48°52' W 123°03'714.3
2017-Dec-08 13:00N 48°56' W 123°11'714.6
2017-Dec-08 12:31N 49°01' W 123°20'714.9
2017-Dec-08 12:01N 49°06' W 123°28'815.5
2017-Dec-08 11:30N 49°12' W 123°35'815.5
2017-Dec-08 11:00N 49°18' W 123°43'812.6
2017-Dec-08 10:24N 49°22' W 123°53'614.4
2017-Dec-08 10:01N 49°23' W 124°02'712.3
2017-Dec-08 09:29N 49°25' W 124°12'714.1
2017-Dec-08 09:00N 49°27' W 124°21'714.6
2017-Dec-08 08:30N 49°32' W 124°29'814.9
2017-Dec-08 08:00N 49°37' W 124°37'715.0
2017-Dec-08 07:30N 49°43' W 124°45'714.8
2017-Dec-08 07:00N 49°48' W 124°53'714.5
2017-Dec-08 06:30N 49°53' W 125°01'713.1
2017-Dec-08 06:00N 49°57' W 125°09'510.4
2017-Dec-08 05:30N 50°02' W 125°13'5 9.3
2017-Dec-08 05:00N 50°06' W 125°17'713.6
2017-Dec-08 04:30N 50°12' W 125°22'916.7
2017-Dec-08 04:00N 50°20' W 125°26'915.0
2017-Dec-08 03:22N 50°22' W 125°40'4215.6
2017-Dec-08 00:39N 50°36' W 126°43'817.4
2017-Dec-08 00:13N 50°41' W 126°52'417.2
2017-Dec-07 23:59N 50°43' W 126°57'817.1
2017-Dec-07 23:30N 50°48' W 127°07'916.9
2017-Dec-07 22:59N 50°53' W 127°19'817.4
2017-Dec-07 22:30N 50°58' W 127°30'816.6
2017-Dec-07 22:00N 51°03' W 127°40'816.9
2017-Dec-07 21:30N 51°09' W 127°50'816.4
2017-Dec-07 21:00N 51°17' W 127°53'816.4
2017-Dec-07 20:30N 51°25' W 127°53'817.1
2017-Dec-07 20:00N 51°33' W 127°52'917.1
2017-Dec-07 19:30N 51°42' W 127°55'917.4
2017-Dec-07 19:00N 51°50' W 127°56'816.5
2017-Dec-07 18:30N 51°59' W 127°56'1012.7
2017-Dec-07 17:45N 52°05' W 128°07'413.4
2017-Dec-07 17:30N 52°09' W 128°08'4 6.2
2017-Dec-07 16:51N 52°13' W 128°08'615.7
2017-Dec-07 16:26N 52°15' W 128°18'614.6
2017-Dec-07 16:00N 52°17' W 128°28'714.7
2017-Dec-07 15:30N 52°24' W 128°30'916.5
2017-Dec-07 14:58N 52°33' W 128°28'8514.6
2017-Dec-07 09:11N 53°43' W 129°49'416.0
2017-Dec-07 08:57N 53°45' W 129°53'715.8
2017-Dec-07 08:30N 53°50' W 130°01'815.7
2017-Dec-07 08:00N 53°55' W 130°11'815.8
2017-Dec-07 07:30N 54°03' W 130°15'815.6
2017-Dec-07 07:00N 54°09' W 130°24'815.7
2017-Dec-07 06:30N 54°15' W 130°32'815.3
2017-Dec-07 06:00N 54°23' W 130°34'916.7
2017-Dec-07 05:29N 54°31' W 130°32'915.7
2017-Dec-07 04:56N 54°40' W 130°33'715.3
2017-Dec-07 04:30N 54°42' W 130°44'714.5
2017-Dec-07 04:00N 54°45' W 130°56'  
2017-Dec-03 11:06N 54°30' W 130°41'113.0
2017-Dec-03 11:00N 54°28' W 130°40'713.6
2017-Dec-03 10:30N 54°22' W 130°37'714.1
2017-Dec-03 10:00N 54°16' W 130°32'713.8
2017-Dec-03 09:30N 54°10' W 130°26'612.4
2017-Dec-03 09:01N 54°05' W 130°19'714.7
2017-Dec-03 08:30N 53°59' W 130°13'714.0
2017-Dec-03 08:01N 53°53' W 130°06'16113.2
2017-Dec-02 19:47N 51°34' W 127°52'516.9
2017-Dec-02 19:29N 51°29' W 127°50'815.8
2017-Dec-02 18:59N 51°21' W 127°53'816.0
2017-Dec-02 18:30N 51°13' W 127°52'816.1
2017-Dec-02 18:00N 51°06' W 127°46'816.9
2017-Dec-02 17:30N 51°01' W 127°36'816.2
2017-Dec-02 17:00N 50°56' W 127°26'817.0
2017-Dec-02 16:30N 50°51' W 127°15'917.4
2017-Dec-02 16:00N 50°46' W 127°03'917.1
2017-Dec-02 15:30N 50°41' W 126°53'1117.5
2017-Dec-02 14:53N 50°33' W 126°41'3618.2
2017-Dec-02 12:54N 50°23' W 125°47'1018.4
2017-Dec-02 12:23N 50°21' W 125°32'615.8
2017-Dec-02 11:59N 50°17' W 125°24'817.2
2017-Dec-02 11:30N 50°09' W 125°22'612.9
2017-Dec-02 11:00N 50°04' W 125°15'4 8.7
2017-Dec-02 10:30N 50°00' W 125°12'714.5
2017-Dec-02 10:00N 49°55' W 125°05'917.5
2017-Dec-02 09:31N 49°49' W 124°55'917.6
2017-Dec-02 09:00N 49°42' W 124°45'817.2
2017-Dec-02 08:31N 49°37' W 124°36'918.0
2017-Dec-02 07:59N 49°30' W 124°26'817.5
2017-Dec-02 07:30N 49°25' W 124°15'1817.7
2017-Dec-02 06:30N 49°21' W 123°48'917.5
2017-Dec-02 06:00N 49°15' W 123°39'917.5
2017-Dec-02 05:30N 49°08' W 123°30'917.6
2017-Dec-02 05:00N 49°03' W 123°20'816.8
2017-Dec-02 04:30N 48°58' W 123°10'816.6
2017-Dec-02 04:00N 48°52' W 123°00'916.3
2017-Dec-02 03:28N 48°47' W 122°50'715.6
2017-Dec-02 03:01N 48°42' W 122°43'612.1
2017-Dec-02 02:30N 48°40' W 122°34'4 7.9
2017-Dec-02 01:58N 48°43' W 122°31'0 0.0
2017-Dec-02 01:28N 48°43' W 122°31'0 0.0
2017-Dec-02 00:58N 48°43' W 122°31'0 0.0
2017-Dec-02 00:28N 48°43' W 122°31'0 0.0
2017-Dec-01 23:58N 48°43' W 122°31'0 0.0
2017-Dec-01 23:28N 48°43' W 122°31'0 0.0
2017-Dec-01 22:58N 48°43' W 122°31'0 0.0
2017-Dec-01 22:28N 48°43' W 122°31'0 0.0
2017-Dec-01 21:52N 48°43' W 122°31'0 0.0
2017-Dec-01 21:28N 48°43' W 122°31'0 0.0
2017-Dec-01 20:58N 48°43' W 122°31'0 0.0
2017-Dec-01 20:28N 48°43' W 122°31'0 0.0
2017-Dec-01 19:58N 48°43' W 122°31'0 0.0
2017-Dec-01 19:28N 48°43' W 122°31'0 0.0
2017-Dec-01 18:58N 48°43' W 122°31'0 0.0
2017-Dec-01 18:28N 48°43' W 122°31'0 0.0
2017-Dec-01 17:58N 48°43' W 122°31'0 0.0
2017-Dec-01 17:28N 48°43' W 122°31'0 0.0
2017-Dec-01 16:40N 48°43' W 122°31'0 0.0
2017-Dec-01 16:22N 48°43' W 122°31'0 0.0
2017-Dec-01 16:00N 48°43' W 122°31'0 0.6
2017-Dec-01 15:30N 48°44' W 122°31'611.6
2017-Dec-01 15:00N 48°38' W 122°35'714.2
2017-Dec-01 14:30N 48°41' W 122°44'714.8
2017-Dec-01 14:00N 48°47' W 122°52'815.6
2017-Dec-01 13:30N 48°51' W 123°02'816.7
2017-Dec-01 13:00N 48°56' W 123°12'816.6
2017-Dec-01 12:30N 49°02' W 123°21'916.9
2017-Dec-01 11:59N 49°08' W 123°30'917.5
2017-Dec-01 11:29N 49°15' W 123°39'917.3
2017-Dec-01 11:00N 49°21' W 123°48'917.2
2017-Dec-01 10:29N 49°23' W 124°01'816.9
2017-Dec-01 10:00N 49°25' W 124°13'814.8
2017-Dec-01 09:30N 49°28' W 124°24'815.7
2017-Dec-01 09:00N 49°34' W 124°32'816.0
2017-Dec-01 08:30N 49°39' W 124°41'816.1
2017-Dec-01 08:00N 49°46' W 124°49'816.2
2017-Dec-01 07:30N 49°51' W 124°58'714.8
2017-Dec-01 07:00N 49°56' W 125°07'816.1
2017-Dec-01 06:30N 50°03' W 125°14'816.2
2017-Dec-01 06:00N 50°09' W 125°21'918.6
2017-Dec-01 05:30N 50°18' W 125°25'1116.2
2017-Dec-01 04:50N 50°22' W 125°41'3517.0
2017-Dec-01 02:46N 50°30' W 126°35'516.8
2017-Dec-01 02:28N 50°33' W 126°41'1116.2
2017-Dec-01 01:46N 50°41' W 126°53'518.1
2017-Dec-01 01:30N 50°44' W 126°59'817.3
2017-Dec-01 01:00N 50°49' W 127°10'917.3
2017-Dec-01 00:30N 50°54' W 127°22'816.2
2017-Dec-01 00:00N 50°58' W 127°32'816.2
2017-Nov-30 23:30N 51°04' W 127°41'816.2
2017-Nov-30 23:00N 51°09' W 127°51'611.6
2017-Nov-30 22:30N 51°14' W 127°57'816.0
2017-Nov-30 22:00N 51°21' W 127°51'1116.5
2017-Nov-30 21:21N 51°32' W 127°50'  
Track history (hours):
 
Tides and Currents Weather Stations Pressure Air Temp Water Temp Dewpoint Dewpoint Depression Visibility Wind Speed Wind Dir Waves Ship Positions

Columbia

Owner: ALASKA, STATE OF, ANCHORAGE, AK. More information available from US FCC via Universal Licensing System and Coast Guard Vessel Documentation Center.

Last reported at 2017-Dec-10 11:17 UTC. Time now 2017-Dec-12 04:25 UTC.
Position N 54°37' W 130°44'.

Type: Passenger vessel. MMSI: 367144000.

Date/timePositionNaut miles runAvg speedWind from/ knotsBaromVisibWave heightAir tempDewpointWater temp
2017-Dec-10 11:17N 54°37' W 130°44'414.0
2017-Dec-10 11:00N 54°33' W 130°43'714.7
2017-Dec-10 10:30N 54°26' W 130°39'816.1
2017-Dec-10 10:00N 54°18' W 130°34'816.1
2017-Dec-10 09:31N 54°11' W 130°28'816.0
2017-Dec-10 09:01N 54°05' W 130°19'816.6
2017-Dec-10 08:30N 53°58' W 130°12'816.7
2017-Dec-10 08:00N 53°51' W 130°03'10015.1
2017-Dec-10 01:25N 52°30' W 128°27'716.3
2017-Dec-10 01:00N 52°24' W 128°31'816.2
2017-Dec-10 00:31N 52°16' W 128°33'714.5
2017-Dec-10 00:00N 52°15' W 128°21'816.3
2017-Dec-09 23:30N 52°13' W 128°08'4 8.0
2017-Dec-09 22:59N 52°09' W 128°08'912.1
2017-Dec-09 22:16N 52°04' W 127°56'515.6
2017-Dec-09 21:59N 51°59' W 127°56'715.9
2017-Dec-09 21:31N 51°52' W 127°56'816.4
2017-Dec-09 21:01N 51°44' W 127°55'816.0
2017-Dec-09 20:31N 51°36' W 127°53'815.7
2017-Dec-09 20:01N 51°28' W 127°51'815.9
2017-Dec-09 19:30N 51°20' W 127°52'713.9
2017-Dec-09 19:00N 51°13' W 127°51'612.8
2017-Dec-09 18:30N 51°08' W 127°46'713.0
2017-Dec-09 18:00N 51°03' W 127°39'612.4
2017-Dec-09 17:30N 50°58' W 127°32'714.7
2017-Dec-09 17:00N 50°54' W 127°23'918.2
2017-Dec-09 16:30N 50°49' W 127°10'917.9
2017-Dec-09 16:00N 50°44' W 126°59'5115.9
2017-Dec-09 12:49N 50°23' W 125°47'1015.4
2017-Dec-09 12:12N 50°21' W 125°32'316.0
2017-Dec-09 12:00N 50°20' W 125°27'816.3
2017-Dec-09 11:30N 50°13' W 125°22'816.2
2017-Dec-09 11:00N 50°06' W 125°17'714.6
2017-Dec-09 10:31N 49°59' W 125°12'917.8
2017-Dec-09 10:01N 49°53' W 125°02'917.3
2017-Dec-09 09:31N 49°47' W 124°52'917.5
2017-Dec-09 09:00N 49°41' W 124°43'816.8
2017-Dec-09 08:30N 49°35' W 124°34'1017.0
2017-Dec-09 07:55N 49°28' W 124°23'716.8
2017-Dec-09 07:30N 49°25' W 124°13'917.1
2017-Dec-09 06:57N 49°23' W 123°58'817.0
2017-Dec-09 06:29N 49°21' W 123°47'816.9
2017-Dec-09 05:59N 49°16' W 123°36'816.7
2017-Dec-09 05:31N 49°10' W 123°28'917.0
2017-Dec-09 05:00N 49°03' W 123°20'816.4
2017-Dec-09 04:29N 48°58' W 123°10'817.4
2017-Dec-09 04:00N 48°52' W 123°00'816.1
2017-Dec-09 03:30N 48°47' W 122°51'816.8
2017-Dec-09 03:01N 48°41' W 122°42'611.5
2017-Dec-09 02:30N 48°41' W 122°33'3 6.5
2017-Dec-09 02:00N 48°43' W 122°31'0 0.0
2017-Dec-09 01:30N 48°43' W 122°31'0 0.0
2017-Dec-09 01:00N 48°43' W 122°31'0 0.0
2017-Dec-09 00:30N 48°43' W 122°31'0 0.0
2017-Dec-09 00:00N 48°43' W 122°31'0 0.0
2017-Dec-08 23:30N 48°43' W 122°31'0 0.0
2017-Dec-08 23:00N 48°43' W 122°31'0 0.0
2017-Dec-08 22:27N 48°43' W 122°31'0 0.0
2017-Dec-08 21:54N 48°43' W 122°31'0 0.0
2017-Dec-08 21:30N 48°43' W 122°31'0 0.0
2017-Dec-08 20:12N 48°43' W 122°31'0 0.0
2017-Dec-08 19:30N 48°43' W 122°31'0 0.0
2017-Dec-08 18:59N 48°43' W 122°31'0 0.0
2017-Dec-08 18:30N 48°43' W 122°31'0 0.0
2017-Dec-08 18:00N 48°43' W 122°31'0 0.0
2017-Dec-08 17:30N 48°43' W 122°31'0 0.0
2017-Dec-08 16:44N 48°43' W 122°31'0 0.0
2017-Dec-08 16:30N 48°43' W 122°31'0 0.0
2017-Dec-08 16:00N 48°43' W 122°31'1 1.4
2017-Dec-08 15:30N 48°43' W 122°32'714.1
2017-Dec-08 15:01N 48°37' W 122°37'714.7
2017-Dec-08 14:30N 48°43' W 122°45'714.2
2017-Dec-08 14:00N 48°47' W 122°53'815.4
2017-Dec-08 13:30N 48°52' W 123°03'714.3
2017-Dec-08 13:00N 48°56' W 123°11'714.6
2017-Dec-08 12:31N 49°01' W 123°20'714.9
2017-Dec-08 12:01N 49°06' W 123°28'815.5
2017-Dec-08 11:30N 49°12' W 123°35'815.5
2017-Dec-08 11:00N 49°18' W 123°43'812.6
2017-Dec-08 10:24N 49°22' W 123°53'614.4
2017-Dec-08 10:01N 49°23' W 124°02'712.3
2017-Dec-08 09:29N 49°25' W 124°12'714.1
2017-Dec-08 09:00N 49°27' W 124°21'714.6
2017-Dec-08 08:30N 49°32' W 124°29'814.9
2017-Dec-08 08:00N 49°37' W 124°37'715.0
2017-Dec-08 07:30N 49°43' W 124°45'714.8
2017-Dec-08 07:00N 49°48' W 124°53'714.5
2017-Dec-08 06:30N 49°53' W 125°01'713.1
2017-Dec-08 06:00N 49°57' W 125°09'510.4
2017-Dec-08 05:30N 50°02' W 125°13'5 9.3
2017-Dec-08 05:00N 50°06' W 125°17'713.6
2017-Dec-08 04:30N 50°12' W 125°22'916.7
2017-Dec-08 04:00N 50°20' W 125°26'915.0
2017-Dec-08 03:22N 50°22' W 125°40'4215.6
2017-Dec-08 00:39N 50°36' W 126°43'817.4
2017-Dec-08 00:13N 50°41' W 126°52'417.2
2017-Dec-07 23:59N 50°43' W 126°57'817.1
2017-Dec-07 23:30N 50°48' W 127°07'916.9
2017-Dec-07 22:59N 50°53' W 127°19'817.4
2017-Dec-07 22:30N 50°58' W 127°30'816.6
2017-Dec-07 22:00N 51°03' W 127°40'816.9
2017-Dec-07 21:30N 51°09' W 127°50'816.4
2017-Dec-07 21:00N 51°17' W 127°53'816.4
2017-Dec-07 20:30N 51°25' W 127°53'817.1
2017-Dec-07 20:00N 51°33' W 127°52'917.1
2017-Dec-07 19:30N 51°42' W 127°55'917.4
2017-Dec-07 19:00N 51°50' W 127°56'816.5
2017-Dec-07 18:30N 51°59' W 127°56'1012.7
2017-Dec-07 17:45N 52°05' W 128°07'413.4
2017-Dec-07 17:30N 52°09' W 128°08'4 6.2
2017-Dec-07 16:51N 52°13' W 128°08'615.7
2017-Dec-07 16:26N 52°15' W 128°18'614.6
2017-Dec-07 16:00N 52°17' W 128°28'714.7
2017-Dec-07 15:30N 52°24' W 128°30'916.5
2017-Dec-07 14:58N 52°33' W 128°28'8514.6
2017-Dec-07 09:11N 53°43' W 129°49'416.0
2017-Dec-07 08:57N 53°45' W 129°53'715.8
2017-Dec-07 08:30N 53°50' W 130°01'815.7
2017-Dec-07 08:00N 53°55' W 130°11'815.8
2017-Dec-07 07:30N 54°03' W 130°15'815.6
2017-Dec-07 07:00N 54°09' W 130°24'815.7
2017-Dec-07 06:30N 54°15' W 130°32'815.3
2017-Dec-07 06:00N 54°23' W 130°34'916.7
2017-Dec-07 05:29N 54°31' W 130°32'915.7
2017-Dec-07 04:56N 54°40' W 130°33'715.3
2017-Dec-07 04:30N 54°42' W 130°44'714.5
2017-Dec-07 04:00N 54°45' W 130°56'  
2017-Dec-03 11:06N 54°30' W 130°41'113.0
2017-Dec-03 11:00N 54°28' W 130°40'713.6
2017-Dec-03 10:30N 54°22' W 130°37'714.1
2017-Dec-03 10:00N 54°16' W 130°32'713.8
2017-Dec-03 09:30N 54°10' W 130°26'612.4
2017-Dec-03 09:01N 54°05' W 130°19'714.7
2017-Dec-03 08:30N 53°59' W 130°13'714.0
2017-Dec-03 08:01N 53°53' W 130°06'16113.2
2017-Dec-02 19:47N 51°34' W 127°52'516.9
2017-Dec-02 19:29N 51°29' W 127°50'815.8
2017-Dec-02 18:59N 51°21' W 127°53'816.0
2017-Dec-02 18:30N 51°13' W 127°52'816.1
2017-Dec-02 18:00N 51°06' W 127°46'816.9
2017-Dec-02 17:30N 51°01' W 127°36'816.2
2017-Dec-02 17:00N 50°56' W 127°26'817.0
2017-Dec-02 16:30N 50°51' W 127°15'917.4
2017-Dec-02 16:00N 50°46' W 127°03'917.1
2017-Dec-02 15:30N 50°41' W 126°53'1117.5
2017-Dec-02 14:53N 50°33' W 126°41'3618.2
2017-Dec-02 12:54N 50°23' W 125°47'1018.4
2017-Dec-02 12:23N 50°21' W 125°32'615.8
2017-Dec-02 11:59N 50°17' W 125°24'817.2
2017-Dec-02 11:30N 50°09' W 125°22'612.9
2017-Dec-02 11:00N 50°04' W 125°15'4 8.7
2017-Dec-02 10:30N 50°00' W 125°12'714.5
2017-Dec-02 10:00N 49°55' W 125°05'917.5
2017-Dec-02 09:31N 49°49' W 124°55'917.6
2017-Dec-02 09:00N 49°42' W 124°45'817.2
2017-Dec-02 08:31N 49°37' W 124°36'918.0
2017-Dec-02 07:59N 49°30' W 124°26'817.5
2017-Dec-02 07:30N 49°25' W 124°15'1817.7
2017-Dec-02 06:30N 49°21' W 123°48'917.5
2017-Dec-02 06:00N 49°15' W 123°39'917.5
2017-Dec-02 05:30N 49°08' W 123°30'917.6
2017-Dec-02 05:00N 49°03' W 123°20'816.8
2017-Dec-02 04:30N 48°58' W 123°10'816.6
2017-Dec-02 04:00N 48°52' W 123°00'916.3
2017-Dec-02 03:28N 48°47' W 122°50'715.6
2017-Dec-02 03:01N 48°42' W 122°43'612.1
2017-Dec-02 02:30N 48°40' W 122°34'4 7.9
2017-Dec-02 01:58N 48°43' W 122°31'0 0.0
2017-Dec-02 01:28N 48°43' W 122°31'0 0.0
2017-Dec-02 00:58N 48°43' W 122°31'0 0.0
2017-Dec-02 00:28N 48°43' W 122°31'0 0.0
2017-Dec-01 23:58N 48°43' W 122°31'0 0.0
2017-Dec-01 23:28N 48°43' W 122°31'0 0.0
2017-Dec-01 22:58N 48°43' W 122°31'0 0.0
2017-Dec-01 22:28N 48°43' W 122°31'0 0.0
2017-Dec-01 21:52N 48°43' W 122°31'0 0.0
2017-Dec-01 21:28N 48°43' W 122°31'0 0.0
2017-Dec-01 20:58N 48°43' W 122°31'0 0.0
2017-Dec-01 20:28N 48°43' W 122°31'0 0.0
2017-Dec-01 19:58N 48°43' W 122°31'0 0.0
2017-Dec-01 19:28N 48°43' W 122°31'0 0.0
2017-Dec-01 18:58N 48°43' W 122°31'0 0.0
2017-Dec-01 18:28N 48°43' W 122°31'0 0.0
2017-Dec-01 17:58N 48°43' W 122°31'0 0.0
2017-Dec-01 17:28N 48°43' W 122°31'0 0.0
2017-Dec-01 16:40N 48°43' W 122°31'0 0.0
2017-Dec-01 16:22N 48°43' W 122°31'0 0.0
2017-Dec-01 16:00N 48°43' W 122°31'0 0.6
2017-Dec-01 15:30N 48°44' W 122°31'611.6
2017-Dec-01 15:00N 48°38' W 122°35'714.2
2017-Dec-01 14:30N 48°41' W 122°44'714.8
2017-Dec-01 14:00N 48°47' W 122°52'815.6
2017-Dec-01 13:30N 48°51' W 123°02'816.7
2017-Dec-01 13:00N 48°56' W 123°12'816.6
2017-Dec-01 12:30N 49°02' W 123°21'916.9
2017-Dec-01 11:59N 49°08' W 123°30'917.5
2017-Dec-01 11:29N 49°15' W 123°39'917.3
2017-Dec-01 11:00N 49°21' W 123°48'917.2
2017-Dec-01 10:29N 49°23' W 124°01'816.9
2017-Dec-01 10:00N 49°25' W 124°13'814.8
2017-Dec-01 09:30N 49°28' W 124°24'815.7
2017-Dec-01 09:00N 49°34' W 124°32'816.0
2017-Dec-01 08:30N 49°39' W 124°41'816.1
2017-Dec-01 08:00N 49°46' W 124°49'816.2
2017-Dec-01 07:30N 49°51' W 124°58'714.8
2017-Dec-01 07:00N 49°56' W 125°07'816.1
2017-Dec-01 06:30N 50°03' W 125°14'816.2
2017-Dec-01 06:00N 50°09' W 125°21'918.6
2017-Dec-01 05:30N 50°18' W 125°25'1116.2
2017-Dec-01 04:50N 50°22' W 125°41'3517.0
2017-Dec-01 02:46N 50°30' W 126°35'516.8
2017-Dec-01 02:28N 50°33' W 126°41'1116.2
2017-Dec-01 01:46N 50°41' W 126°53'518.1
2017-Dec-01 01:30N 50°44' W 126°59'817.3
2017-Dec-01 01:00N 50°49' W 127°10'917.3
2017-Dec-01 00:30N 50°54' W 127°22'816.2
2017-Dec-01 00:00N 50°58' W 127°32'816.2
2017-Nov-30 23:30N 51°04' W 127°41'816.2
2017-Nov-30 23:00N 51°09' W 127°51'611.6
2017-Nov-30 22:30N 51°14' W 127°57'816.0
2017-Nov-30 22:00N 51°21' W 127°51'1116.5
2017-Nov-30 21:21N 51°32' W 127°50'  

Dump ship's entire track history